Time;durP1;ratioP1;P1;durP2;ratioP2;P2;SDS_P1;SDS_P2;PMS_P1;PMS_P2;Temp;Humidity;BMP_temperature;BMP_pressure;BME280_temperature;BME280_humidity;BME280_pressure;Samples;Min_cycle;Max_cycle;Signal;HPM_P1;HPM_P2
2023/08/02 00:01:48;;;;;;;7.82;3.85;;;;;;;15.72;100.00;99605.50;5015459;28;20492;-80
2023/08/02 00:04:14;;;;;;;7.88;4.10;;;;;;;15.76;100.00;99596.13;5016850;28;20053;-80
2023/08/02 00:06:41;;;;;;;11.82;3.78;;;;;;;15.72;100.00;99589.69;5016474;28;20122;-81
2023/08/02 00:09:07;;;;;;;9.30;4.00;;;;;;;15.70;100.00;99597.00;5017421;28;20116;-80
2023/08/02 00:11:34;;;;;;;8.30;3.90;;;;;;;15.71;100.00;99590.69;5015516;28;20065;-81
2023/08/02 00:14:01;;;;;;;9.55;4.07;;;;;;;15.72;100.00;99584.41;5016951;28;20128;-81
2023/08/02 00:16:29;;;;;;;9.38;3.78;;;;;;;15.70;100.00;99581.97;5016302;28;20137;-79
2023/08/02 00:18:55;;;;;;;12.82;3.70;;;;;;;15.70;100.00;99581.97;5016187;28;20482;-79
2023/08/02 00:21:22;;;;;;;9.82;3.63;;;;;;;15.78;100.00;99583.53;5015297;28;20137;-81
2023/08/02 00:23:48;;;;;;;10.52;3.72;;;;;;;15.71;100.00;99580.16;5015415;28;20085;-77
2023/08/02 00:26:15;;;;;;;8.38;3.72;;;;;;;15.71;100.00;99578.31;5014364;28;20054;-79
2023/08/02 00:28:42;;;;;;;5.15;3.60;;;;;;;15.73;100.00;99586.81;5013766;28;20081;-80
2023/08/02 00:31:08;;;;;;;8.15;3.75;;;;;;;15.79;100.00;99577.25;5013203;28;20058;-83
2023/08/02 00:33:36;;;;;;;10.02;4.20;;;;;;;15.83;100.00;99581.88;5018786;28;20163;-80
2023/08/02 00:36:03;;;;;;;9.88;4.45;;;;;;;15.86;100.00;99570.09;5014084;28;20551;-80
2023/08/02 00:38:31;;;;;;;5.63;3.70;;;;;;;15.86;100.00;99568.25;5014116;28;20141;-80
2023/08/02 00:41:02;;;;;;;6.00;3.83;;;;;;;15.92;100.00;99569.22;5012826;28;20053;-80
2023/08/02 00:43:29;;;;;;;9.80;4.53;;;;;;;15.86;100.00;99559.53;5011955;28;20420;-78
2023/08/02 00:45:56;;;;;;;7.75;4.00;;;;;;;15.96;100.00;99565.13;5011764;28;20073;-79
2023/08/02 00:48:23;;;;;;;7.85;3.97;;;;;;;15.88;100.00;99552.22;5012587;28;20144;-78
2023/08/02 00:50:51;;;;;;;12.00;3.75;;;;;;;15.78;100.00;99551.91;5010085;28;20050;-79
2023/08/02 00:53:18;;;;;;;9.00;4.40;;;;;;;15.67;100.00;99555.22;5013705;28;20137;-78
2023/08/02 00:55:44;;;;;;;9.25;3.90;;;;;;;15.60;100.00;99566.63;5004501;28;20085;-78
2023/08/02 00:58:11;;;;;;;9.07;4.07;;;;;;;15.51;100.00;99560.00;5012453;28;20512;-78
2023/08/02 01:00:38;;;;;;;8.13;3.92;;;;;;;15.48;100.00;99556.97;5010958;28;20125;-80
2023/08/02 01:03:05;;;;;;;7.43;3.78;;;;;;;15.38;100.00;99546.91;5015047;28;20053;-80
2023/08/02 01:05:38;;;;;;;8.60;3.50;;;;;;;15.34;100.00;99553.63;5015987;28;20544;-81
2023/08/02 01:08:12;;;;;;;9.52;3.95;;;;;;;15.33;100.00;99541.47;5014333;28;20161;-79
2023/08/02 01:10:44;;;;;;;5.63;4.00;;;;;;;15.42;100.00;99550.72;5013035;28;20144;-78
2023/08/02 01:13:14;;;;;;;7.07;3.75;;;;;;;15.50;100.00;99542.56;5013392;28;20054;-80
2023/08/02 01:15:41;;;;;;;6.97;3.83;;;;;;;15.51;100.00;99533.63;5010786;28;20073;-79
2023/08/02 01:18:10;;;;;;;8.98;4.30;;;;;;;15.51;100.00;99531.00;5012265;28;20050;-79
2023/08/02 01:20:38;;;;;;;8.75;4.72;;;;;;;15.59;100.00;99525.50;5013546;28;20496;-81
2023/08/02 01:23:04;;;;;;;11.82;3.92;;;;;;;15.61;100.00;99519.97;5015716;28;20065;-81
2023/08/02 01:25:33;;;;;;;7.38;4.25;;;;;;;15.65;100.00;99525.63;5016994;28;20129;-81
2023/08/02 01:28:03;;;;;;;6.07;3.60;;;;;;;15.67;100.00;99528.84;5016568;28;20046;-78
2023/08/02 01:30:35;;;;;;;9.20;4.50;;;;;;;15.75;100.00;99524.13;5017730;28;20080;-81
2023/08/02 01:33:02;;;;;;;;;;;;;;;15.75;100.00;99520.69;5018265;28;20061;-80
2023/08/02 01:35:33;;;;;;;8.20;4.07;;;;;;;15.81;100.00;99525.09;5018184;28;19984;-80
2023/08/02 01:38:02;;;;;;;6.90;4.55;;;;;;;15.82;100.00;99519.59;5017183;28;20560;-80
2023/08/02 01:40:29;;;;;;;9.98;4.28;;;;;;;15.86;100.00;99523.41;5014658;28;20125;-80
2023/08/02 01:42:55;;;;;;;6.40;4.15;;;;;;;15.81;100.00;99520.63;5014486;28;20054;-81
2023/08/02 01:45:22;;;;;;;6.55;3.67;;;;;;;15.89;100.00;99511.63;5013797;28;20053;-79
2023/08/02 01:47:51;;;;;;;9.95;4.15;;;;;;;15.90;100.00;99503.50;5016199;23;20251;-78
2023/08/02 01:50:17;;;;;;;10.77;4.10;;;;;;;15.87;100.00;99492.56;4990002;28;20452;-75
2023/08/02 01:52:48;;;;;;;6.45;4.20;;;;;;;15.95;100.00;99494.94;4991610;28;20398;-75
2023/08/02 01:55:17;;;;;;;10.90;4.03;;;;;;;15.92;100.00;99490.91;4991773;28;20058;-76
2023/08/02 01:57:44;;;;;;;7.07;4.00;;;;;;;15.88;100.00;99483.63;4984618;28;20060;-77
2023/08/02 02:00:12;;;;;;;6.50;3.80;;;;;;;15.93;100.00;99487.22;4995969;28;20069;-77
2023/08/02 02:02:38;;;;;;;7.25;3.90;;;;;;;16.01;100.00;99478.22;4991780;28;20074;-77
2023/08/02 02:05:06;;;;;;;6.55;4.00;;;;;;;16.01;100.00;99474.78;4991501;28;20054;-76
2023/08/02 02:07:32;;;;;;;6.55;3.85;;;;;;;16.08;100.00;99462.28;4991600;28;20136;-76
2023/08/02 02:09:59;;;;;;;9.25;5.40;;;;;;;16.11;100.00;99461.88;4990337;28;20101;-76
2023/08/02 02:12:28;;;;;;;8.63;3.97;;;;;;;16.15;100.00;99458.56;4991900;28;20564;-77
2023/08/02 02:14:55;;;;;;;7.70;3.90;;;;;;;16.13;100.00;99450.06;4987212;28;20050;-79
2023/08/02 02:17:22;;;;;;;6.45;3.72;;;;;;;16.19;100.00;99448.38;4981659;28;20556;-76
2023/08/02 02:19:48;;;;;;;8.35;4.53;;;;;;;16.22;100.00;99450.56;4991449;28;20428;-76
2023/08/02 02:22:15;;;;;;;9.63;4.15;;;;;;;16.20;100.00;99442.06;4991028;28;20132;-77
2023/08/02 02:24:41;;;;;;;6.10;3.97;;;;;;;16.24;100.00;99430.03;4991031;28;20060;-77
2023/08/02 02:27:08;;;;;;;10.70;4.45;;;;;;;16.18;100.00;99418.53;4984875;28;20162;-77
2023/08/02 02:29:36;;;;;;;9.77;3.80;;;;;;;16.16;100.00;99409.22;4993366;28;20051;-78
2023/08/02 02:32:03;;;;;;;6.53;4.30;;;;;;;16.17;100.00;99406.38;4994406;28;20132;-77
2023/08/02 02:34:29;;;;;;;8.38;4.20;;;;;;;16.26;100.00;99407.69;4988605;28;20138;-77
2023/08/02 02:36:56;;;;;;;8.23;4.47;;;;;;;16.25;100.00;99402.63;5001621;28;20133;-78
2023/08/02 02:39:23;;;;;;;5.78;4.10;;;;;;;16.24;100.00;99401.81;5003123;28;20488;-77
2023/08/02 02:41:49;;;;;;;6.68;3.92;;;;;;;16.27;100.00;99387.38;5014593;28;20129;-77
2023/08/02 02:44:16;;;;;;;7.63;3.63;;;;;;;16.24;100.00;99380.69;5013039;28;20054;-77
2023/08/02 02:46:44;;;;;;;6.15;4.07;;;;;;;16.20;100.00;99379.53;5010435;28;20104;-78
2023/08/02 02:49:10;;;;;;;6.35;3.80;;;;;;;16.21;100.00;99377.69;5004345;28;20046;-80
2023/08/02 02:51:37;;;;;;;9.07;3.65;;;;;;;16.20;100.00;99387.44;4994894;28;20129;-78
2023/08/02 02:54:03;;;;;;;5.32;3.80;;;;;;;16.23;100.00;99373.00;4995075;28;20461;-77
2023/08/02 02:56:30;;;;;;;6.55;4.10;;;;;;;16.20;100.00;99366.34;4994913;28;20054;-78
2023/08/02 02:58:57;;;;;;;7.32;3.65;;;;;;;16.22;100.00;99348.44;4995626;28;20151;-78
2023/08/02 03:01:23;;;;;;;6.13;3.50;;;;;;;16.24;100.00;99351.66;4993164;28;20496;-79
2023/08/02 03:03:51;;;;;;;6.40;3.67;;;;;;;16.18;100.00;99342.00;4994693;28;20078;-76
2023/08/02 03:06:18;;;;;;;6.47;3.70;;;;;;;16.14;100.00;99353.22;4994283;28;20129;-77
2023/08/02 03:08:44;;;;;;;8.43;3.70;;;;;;;16.11;100.00;99341.28;4994504;28;20516;-77
2023/08/02 03:11:11;;;;;;;7.03;3.55;;;;;;;16.13;100.00;99344.50;4995013;28;20526;-76
2023/08/02 03:13:37;;;;;;;7.97;4.00;;;;;;;16.17;100.00;99358.06;4994888;28;20483;-78
2023/08/02 03:16:04;;;;;;;6.50;3.70;;;;;;;16.12;100.00;99358.72;4988361;28;20096;-78
2023/08/02 03:18:31;;;;;;;5.35;3.30;;;;;;;16.04;100.00;99353.78;4994191;28;20049;-77
2023/08/02 03:20:59;;;;;;;5.72;3.40;;;;;;;15.98;100.00;99341.47;4995144;28;20064;-76
2023/08/02 03:23:25;;;;;;;6.18;3.50;;;;;;;15.82;100.00;99352.63;4995958;28;20118;-77
2023/08/02 03:25:52;;;;;;;8.25;4.07;;;;;;;15.89;100.00;99351.50;5009237;28;20085;-79
2023/08/02 03:28:18;;;;;;;9.48;4.40;;;;;;;15.90;100.00;99363.69;5011451;28;20074;-76
2023/08/02 03:30:45;;;;;;;9.95;5.32;;;;;;;15.88;100.00;99357.00;5009955;28;20065;-76
2023/08/02 03:33:12;;;;;;;9.05;5.43;;;;;;;15.81;100.00;99351.81;5012538;28;20061;-77
2023/08/02 03:35:38;;;;;;;11.20;5.50;;;;;;;15.79;100.00;99350.41;5011390;28;20527;-78
2023/08/02 03:38:06;;;;;;;8.45;5.07;;;;;;;15.81;100.00;99345.72;5012309;28;20094;-78
2023/08/02 03:40:33;;;;;;;8.80;4.70;;;;;;;15.79;100.00;99337.22;4993914;28;20137;-78
2023/08/02 03:42:59;;;;;;;8.13;4.95;;;;;;;15.78;100.00;99332.97;4994329;28;20133;-78
2023/08/02 03:45:26;;;;;;;9.52;4.90;;;;;;;15.73;100.00;99320.47;4992330;28;20061;-78
2023/08/02 03:47:52;;;;;;;8.65;4.70;;;;;;;15.64;100.00;99305.94;4993574;28;20085;-77
2023/08/02 03:50:19;;;;;;;8.43;4.95;;;;;;;15.54;100.00;99298.56;4993607;28;20468;-78
2023/08/02 03:52:46;;;;;;;6.43;3.95;;;;;;;15.54;100.00;99289.84;4969795;28;20060;-77
2023/08/02 03:55:14;;;;;;;7.45;4.28;;;;;;;15.49;100.00;99277.31;4992948;28;20133;-76
2023/08/02 03:57:40;;;;;;;7.28;4.20;;;;;;;15.50;100.00;99264.94;4993278;28;20089;-77
2023/08/02 04:00:08;;;;;;;7.05;4.10;;;;;;;15.52;100.00;99284.78;4993141;28;20560;-76
2023/08/02 04:02:35;;;;;;;9.48;4.63;;;;;;;15.60;100.00;99286.31;4991933;28;20065;-78
2023/08/02 04:05:01;;;;;;;8.23;4.88;;;;;;;15.67;100.00;99289.69;4992946;28;20120;-78
2023/08/02 04:07:28;;;;;;;6.68;4.30;;;;;;;15.73;100.00;99288.00;4993363;28;20157;-78
2023/08/02 04:09:55;;;;;;;5.72;4.32;;;;;;;15.79;100.00;99290.56;4993316;28;20416;-76
2023/08/02 04:12:23;;;;;;;11.82;4.55;;;;;;;15.78;100.00;99272.31;4991589;28;20061;-77
2023/08/02 04:14:49;;;;;;;6.47;4.53;;;;;;;15.83;100.00;99268.00;4992393;28;20065;-76
2023/08/02 04:17:16;;;;;;;7.68;4.47;;;;;;;15.80;100.00;99270.25;4991714;28;20074;-79
2023/08/02 04:19:42;;;;;;;11.48;4.60;;;;;;;15.70;100.00;99262.06;4993014;28;20145;-77
2023/08/02 04:22:12;;;;;;;6.13;4.93;;;;;;;15.70;100.00;99277.91;4991829;28;20047;-78
2023/08/02 04:24:38;;;;;;;8.60;5.05;;;;;;;15.66;100.00;99276.72;4991781;28;20129;-78
2023/08/02 04:27:05;;;;;;;8.20;4.90;;;;;;;15.82;100.00;99279.56;4987614;28;20054;-77
2023/08/02 04:29:33;;;;;;;9.38;5.40;;;;;;;15.87;100.00;99265.72;4990035;28;20057;-76
2023/08/02 04:32:00;;;;;;;9.80;5.22;;;;;;;15.81;100.00;99256.06;4987264;28;20050;-78
2023/08/02 04:34:26;;;;;;;6.57;5.05;;;;;;;15.72;100.00;99236.28;4991762;28;20046;-78
2023/08/02 04:36:53;;;;;;;8.50;5.13;;;;;;;15.75;100.00;99225.28;4991797;28;20082;-79
2023/08/02 04:39:19;;;;;;;11.82;5.40;;;;;;;15.65;100.00;99212.63;4984124;28;20509;-78
2023/08/02 04:41:46;;;;;;;11.77;5.30;;;;;;;15.65;100.00;99196.81;4991721;28;20177;-78
2023/08/02 04:44:13;;;;;;;7.55;5.13;;;;;;;15.71;100.00;99189.84;4991410;28;20134;-76
2023/08/02 04:46:41;;;;;;;9.35;5.88;;;;;;;15.65;100.00;99177.56;4989832;28;20058;-78
2023/08/02 04:49:07;;;;;;;7.68;5.45;;;;;;;15.66;100.00;99176.53;4990592;28;20587;-79
2023/08/02 04:51:36;;;;;;;10.85;6.40;;;;;;;15.65;100.00;99157.25;4991027;28;20105;-77
2023/08/02 04:54:03;;;;;;;9.57;5.60;;;;;;;15.65;100.00;99151.19;4991413;28;20432;-79
2023/08/02 04:56:30;;;;;;;8.23;6.10;;;;;;;15.65;100.00;99146.72;4991286;28;20485;-79
2023/08/02 04:58:56;;;;;;;10.27;5.80;;;;;;;15.66;100.00;99136.97;4990814;28;20129;-78
2023/08/02 05:01:23;;;;;;;12.18;6.28;;;;;;;15.61;100.00;99127.09;4988920;28;20587;-78
2023/08/02 05:03:51;;;;;;;12.02;6.57;;;;;;;15.62;100.00;99125.25;4992133;28;20061;-79
2023/08/02 05:06:21;;;;;;;10.07;6.53;;;;;;;15.66;100.00;99126.44;4993749;28;20110;-80
2023/08/02 05:08:50;;;;;;;9.23;6.70;;;;;;;15.64;100.00;99131.13;5000340;28;20112;-80
2023/08/02 05:11:17;;;;;;;9.68;6.80;;;;;;;15.69;100.00;99137.31;4986803;28;20050;-80
2023/08/02 05:13:43;;;;;;;10.50;7.25;;;;;;;15.75;100.00;99140.91;4993939;28;20141;-79
2023/08/02 05:16:13;;;;;;;10.93;6.50;;;;;;;15.81;100.00;99135.53;4994092;28;20046;-80
2023/08/02 05:18:41;;;;;;;10.93;6.78;;;;;;;15.84;100.00;99129.00;4997791;28;20058;-80
2023/08/02 05:21:13;;;;;;;10.90;6.57;;;;;;;15.92;100.00;99121.56;4996816;28;20055;-80
2023/08/02 05:23:39;;;;;;;8.57;6.75;;;;;;;15.92;100.00;99118.94;4995865;28;20065;-79
2023/08/02 05:26:06;;;;;;;9.77;6.10;;;;;;;15.99;100.00;99116.19;4998272;28;20137;-79
2023/08/02 05:28:35;;;;;;;7.57;6.20;;;;;;;15.95;100.00;99115.03;4996425;28;20154;-79
2023/08/02 05:31:02;;;;;;;12.32;6.72;;;;;;;15.93;100.00;99090.72;4992172;28;20137;-79
2023/08/02 05:33:29;;;;;;;13.35;6.75;;;;;;;15.89;100.00;99076.38;4991952;28;20169;-78
2023/08/02 05:35:56;;;;;;;11.43;7.13;;;;;;;15.90;100.00;99075.34;4990026;28;20082;-79
2023/08/02 05:38:24;;;;;;;11.98;6.78;;;;;;;16.09;100.00;99073.38;4990041;28;20123;-78
2023/08/02 05:40:50;;;;;;;12.10;7.03;;;;;;;16.02;100.00;99062.97;4993148;28;20066;-79
2023/08/02 05:43:17;;;;;;;14.95;7.72;;;;;;;15.99;100.00;99058.16;5000011;28;20093;-79
2023/08/02 05:45:44;;;;;;;13.38;7.35;;;;;;;15.96;100.00;99055.97;4997813;28;20520;-79
2023/08/02 05:48:10;;;;;;;10.43;6.95;;;;;;;16.07;100.00;99068.34;4990442;28;20485;-78
2023/08/02 05:50:37;;;;;;;12.38;8.32;;;;;;;16.00;100.00;99057.13;4993622;28;20137;-79
2023/08/02 05:53:03;;;;;;;11.90;7.00;;;;;;;16.07;100.00;99052.50;4994501;28;20089;-79
2023/08/02 05:55:31;;;;;;;12.27;7.35;;;;;;;16.11;100.00;99051.00;4994554;28;20317;-79
2023/08/02 05:57:58;;;;;;;15.02;7.65;;;;;;;16.21;100.00;99048.59;4994298;28;20154;-80
2023/08/02 06:00:24;;;;;;;14.02;7.32;;;;;;;16.12;100.00;99046.53;4994391;28;20066;-79
2023/08/02 06:02:51;;;;;;;13.57;8.18;;;;;;;16.10;100.00;99040.69;4995074;28;20137;-78
2023/08/02 06:05:18;;;;;;;10.60;7.35;;;;;;;16.03;100.00;99037.41;4997142;28;20081;-78
2023/08/02 06:07:44;;;;;;;10.52;7.93;;;;;;;16.03;100.00;99029.47;4991811;28;20117;-79
2023/08/02 06:10:11;;;;;;;9.93;6.88;;;;;;;16.03;100.00;99017.09;4998994;28;20051;-81
2023/08/02 06:12:42;;;;;;;12.40;8.27;;;;;;;16.04;100.00;99015.25;4997177;28;20133;-80
2023/08/02 06:15:12;;;;;;;16.48;8.63;;;;;;;16.02;100.00;99012.84;4997873;28;20046;-79
2023/08/02 06:17:38;;;;;;;13.50;8.07;;;;;;;16.06;100.00;99014.00;5001463;28;20137;-80
2023/08/02 06:20:06;;;;;;;10.57;7.38;;;;;;;16.04;100.00;99012.63;5004123;28;20081;-79
2023/08/02 06:22:33;;;;;;;13.00;7.97;;;;;;;15.92;100.00;99009.97;5003591;28;20054;-78
2023/08/02 06:25:00;;;;;;;17.65;8.50;;;;;;;15.84;100.00;99002.41;5003660;28;20078;-80
2023/08/02 06:27:26;;;;;;;12.77;8.45;;;;;;;15.89;100.00;98990.13;5006355;28;20109;-80
2023/08/02 06:29:54;;;;;;;12.18;8.10;;;;;;;15.86;100.00;98995.06;5005827;28;20098;-80
2023/08/02 06:32:21;;;;;;;14.63;8.85;;;;;;;15.88;100.00;98987.72;5005467;28;20100;-79
2023/08/02 06:34:47;;;;;;;14.02;8.85;;;;;;;15.85;100.00;98982.91;5007833;28;20503;-80
2023/08/02 06:37:14;;;;;;;11.82;7.85;;;;;;;15.82;100.00;98973.63;5008338;28;20058;-80
2023/08/02 06:39:41;;;;;;;14.27;8.68;;;;;;;15.78;100.00;98961.13;5006271;28;20081;-81
2023/08/02 06:42:08;;;;;;;15.50;8.82;;;;;;;15.82;100.00;98954.34;5007026;28;20547;-80
2023/08/02 06:44:34;;;;;;;12.82;9.00;;;;;;;15.77;100.00;98938.41;5002011;28;20081;-81
2023/08/02 06:47:02;;;;;;;10.15;8.38;;;;;;;15.81;100.00;98931.66;4998668;28;20056;-81
2023/08/02 06:49:29;;;;;;;13.02;9.00;;;;;;;15.77;100.00;98923.41;5000357;28;20085;-81
2023/08/02 06:51:55;;;;;;;14.02;9.15;;;;;;;15.83;100.00;98919.84;5002782;28;20137;-82
2023/08/02 06:54:22;;;;;;;16.20;9.45;;;;;;;15.82;100.00;98922.72;5007258;28;20114;-82
2023/08/02 06:56:52;;;;;;;13.38;8.60;;;;;;;15.86;100.00;98915.94;5002295;28;20137;-80
2023/08/02 06:59:18;;;;;;;11.02;8.25;;;;;;;15.92;100.00;98897.34;5006575;28;20085;-80
2023/08/02 07:01:47;;;;;;;13.98;9.32;;;;;;;15.99;100.00;98905.13;5008221;28;20154;-80
2023/08/02 07:04:15;;;;;;;13.02;9.35;;;;;;;16.07;100.00;98891.56;5007166;28;20081;-80
2023/08/02 07:06:41;;;;;;;11.65;9.43;;;;;;;16.13;100.00;98898.53;5005701;28;20129;-79
2023/08/02 07:09:08;;;;;;;11.45;8.88;;;;;;;16.14;100.00;98884.31;5007596;28;20154;-80
2023/08/02 07:11:35;;;;;;;11.32;8.63;;;;;;;16.29;100.00;98888.28;5008879;28;20081;-80
2023/08/02 07:14:01;;;;;;;10.18;7.95;;;;;;;16.41;100.00;98876.66;5006430;28;20543;-80
2023/08/02 07:16:28;;;;;;;10.40;7.78;;;;;;;16.52;100.00;98872.38;5008529;28;20073;-80
2023/08/02 07:18:55;;;;;;;12.73;8.15;;;;;;;16.48;100.00;98860.69;5008920;28;20057;-79
2023/08/02 07:21:23;;;;;;;10.52;7.90;;;;;;;16.44;100.00;98849.00;5007597;28;20102;-79
2023/08/02 07:23:49;;;;;;;9.80;7.25;;;;;;;16.40;100.00;98842.56;5006265;28;20076;-81
2023/08/02 07:26:16;;;;;;;10.88;7.60;;;;;;;16.40;100.00;98838.09;5003286;28;20082;-79
2023/08/02 07:28:42;;;;;;;11.15;6.90;;;;;;;16.37;100.00;98830.66;5002973;28;20106;-80
2023/08/02 07:31:10;;;;;;;11.15;7.28;;;;;;;16.56;100.00;98815.38;5000390;28;20062;-79
2023/08/02 07:33:36;;;;;;;12.85;7.10;;;;;;;16.60;100.00;98811.22;4996737;28;20129;-79
2023/08/02 07:36:04;;;;;;;11.90;7.47;;;;;;;16.66;100.00;98810.31;4999843;28;20073;-80
2023/08/02 07:38:32;;;;;;;12.45;7.07;;;;;;;16.67;100.00;98796.06;4999643;28;20510;-78
2023/08/02 07:41:06;;;;;;;11.15;7.43;;;;;;;17.17;100.00;98782.81;5000109;28;20172;-80
2023/08/02 07:43:33;;;;;;;9.20;6.60;;;;;;;17.86;100.00;98785.81;4995896;28;20058;-78
2023/08/02 07:48:28;;;;;;;9.35;5.75;;;;;;;19.12;100.00;98768.59;5018041;23;20046;-78
2023/08/02 07:50:55;;;;;;;8.75;5.20;;;;;;;19.35;100.00;98778.03;5006053;28;20157;-78
2023/08/02 07:53:21;;;;;;;7.28;5.82;;;;;;;18.78;100.00;98763.63;5005842;28;20073;-78
2023/08/02 07:55:59;;;;;;;7.82;5.45;;;;;;;18.31;100.00;98758.19;5009257;28;20054;-78
2023/08/02 07:58:26;;;;;;;8.38;5.82;;;;;;;18.23;100.00;98756.81;5010362;28;20054;-78
2023/08/02 08:00:53;;;;;;;7.47;6.13;;;;;;;18.17;100.00;98751.72;5012730;28;20041;-76
2023/08/02 08:03:19;;;;;;;8.20;6.10;;;;;;;18.43;100.00;98771.28;5020567;28;20077;-77
2023/08/02 08:05:47;;;;;;;8.15;5.80;;;;;;;18.46;100.00;98745.06;5016834;28;20081;-77
2023/08/02 08:08:14;;;;;;;6.93;5.78;;;;;;;18.61;100.00;98757.66;5013598;28;20050;-75
2023/08/02 08:10:40;;;;;;;8.38;6.00;;;;;;;18.81;100.00;98754.38;5013194;28;20051;-78
2023/08/02 08:13:08;;;;;;;7.82;5.68;;;;;;;18.56;100.00;98731.91;5011231;28;20448;-78
2023/08/02 08:15:36;;;;;;;7.57;5.57;;;;;;;18.84;100.00;98737.97;5011980;28;20077;-78
2023/08/02 08:18:03;;;;;;;7.60;5.05;;;;;;;19.05;100.00;98757.44;5020307;28;20053;-77
2023/08/02 08:20:30;;;;;;;7.45;5.22;;;;;;;19.12;100.00;98758.81;5012760;28;20132;-77
2023/08/02 08:22:56;;;;;;;6.82;4.70;;;;;;;18.61;100.00;98768.25;5014775;28;20148;-78
2023/08/02 08:25:23;;;;;;;6.72;4.93;;;;;;;18.75;100.00;98758.84;5012441;28;20127;-77
2023/08/02 08:27:49;;;;;;;6.18;4.72;;;;;;;18.19;100.00;98745.13;5013772;28;20108;-76
2023/08/02 08:30:17;;;;;;;6.68;4.60;;;;;;;18.49;100.00;98754.34;5016554;28;20046;-77
2023/08/02 08:32:44;;;;;;;6.40;5.07;;;;;;;18.68;100.00;98750.31;5012292;28;20141;-78
2023/08/02 08:35:11;;;;;;;7.45;4.90;;;;;;;18.69;100.00;98748.47;5012827;28;20145;-78
2023/08/02 08:37:37;;;;;;;5.45;4.88;;;;;;;18.67;100.00;98750.56;5013162;28;20088;-77
2023/08/02 08:40:04;;;;;;;5.60;4.75;;;;;;;18.95;100.00;98742.25;5013266;28;20081;-78
2023/08/02 08:42:31;;;;;;;7.57;4.75;;;;;;;18.94;100.00;98745.16;5013761;28;20057;-78
2023/08/02 08:44:59;;;;;;;5.70;4.47;;;;;;;18.74;100.00;98748.50;5017384;28;20085;-80
2023/08/02 08:47:28;;;;;;;6.03;4.43;;;;;;;18.69;100.00;98741.31;5012112;28;20264;-78
2023/08/02 08:49:59;;;;;;;6.70;4.53;;;;;;;18.74;100.00;98736.06;5017146;28;20132;-77
2023/08/02 08:52:35;;;;;;;5.28;4.22;;;;;;;18.83;100.00;98734.53;5016086;28;20053;-78
2023/08/02 08:55:05;;;;;;;5.75;3.92;;;;;;;18.79;100.00;98722.03;5013529;28;20072;-78
2023/08/02 08:57:33;;;;;;;5.38;3.50;;;;;;;18.79;100.00;98735.28;5012764;28;20073;-79
2023/08/02 09:00:00;;;;;;;5.63;3.55;;;;;;;18.99;100.00;98732.75;5014798;28;20080;-79
2023/08/02 09:02:31;;;;;;;4.68;3.38;;;;;;;19.02;100.00;98726.94;5012061;28;20183;-79
2023/08/02 09:04:58;;;;;;;3.85;3.22;;;;;;;18.83;100.00;98718.63;5011599;28;20136;-78
2023/08/02 09:07:25;;;;;;;3.10;2.83;;;;;;;18.62;100.00;98701.00;5012216;28;20138;-78
2023/08/02 09:09:51;;;;;;;3.78;2.45;;;;;;;18.85;100.00;98700.63;5011724;28;20591;-77
2023/08/02 09:12:18;;;;;;;2.70;2.50;;;;;;;18.72;100.00;98679.88;5011399;28;20137;-76
2023/08/02 09:15:00;;;;;;;2.58;2.05;;;;;;;18.94;100.00;98676.25;5013108;28;20057;-78
2023/08/02 09:17:28;;;;;;;3.50;1.83;;;;;;;18.75;100.00;98668.75;5014530;28;20054;-76
2023/08/02 09:20:08;;;;;;;1.75;1.60;;;;;;;18.70;100.00;98662.63;5019639;28;20519;-78
2023/08/02 09:22:34;;;;;;;2.63;1.58;;;;;;;19.07;100.00;98666.00;5012767;28;20049;-79
2023/08/02 09:25:03;;;;;;;3.22;1.10;;;;;;;19.36;100.00;98668.22;5013067;28;20050;-77
2023/08/02 09:27:38;;;;;;;2.38;1.42;;;;;;;19.41;100.00;98660.25;5015572;28;20060;-79
2023/08/02 09:30:06;;;;;;;1.55;1.30;;;;;;;19.63;100.00;98660.88;5017231;28;20077;-81
2023/08/02 09:32:34;;;;;;;1.55;1.10;;;;;;;19.83;100.00;98652.19;5030938;28;20096;-79
2023/08/02 09:35:01;;;;;;;1.63;1.35;;;;;;;20.12;100.00;98653.22;5018776;28;20132;-78
2023/08/02 09:37:32;;;;;;;1.55;1.42;;;;;;;20.04;100.00;98637.84;5012104;28;20084;-78
2023/08/02 09:39:59;;;;;;;1.90;1.20;;;;;;;19.80;100.00;98639.44;5012209;28;20137;-78
2023/08/02 09:42:26;;;;;;;2.17;1.48;;;;;;;19.96;100.00;98640.22;5021958;28;20497;-78
2023/08/02 09:44:55;;;;;;;2.30;1.30;;;;;;;20.26;100.00;98626.94;5018623;28;20141;-78
2023/08/02 09:47:21;;;;;;;3.83;1.30;;;;;;;20.24;100.00;98630.94;5011573;28;20062;-79
2023/08/02 09:50:09;;;;;;;1.95;1.38;;;;;;;20.19;100.00;98621.91;5012072;28;20110;-79
2023/08/02 09:52:37;;;;;;;1.40;1.10;;;;;;;20.13;100.00;98616.84;5012514;28;20109;-81
2023/08/02 09:55:04;;;;;;;1.92;0.95;;;;;;;20.20;100.00;98623.50;5018578;28;20088;-78
2023/08/02 09:57:32;;;;;;;3.92;1.20;;;;;;;19.96;100.00;98627.75;5010282;28;20053;-76
2023/08/02 10:00:02;;;;;;;1.92;0.90;;;;;;;19.90;100.00;98626.16;5012381;28;20056;-77
2023/08/02 10:02:30;;;;;;;2.50;1.08;;;;;;;19.94;100.00;98632.50;5020158;28;20429;-78
2023/08/02 10:04:58;;;;;;;1.83;0.93;;;;;;;19.83;100.00;98633.59;5013211;28;20064;-78
2023/08/02 10:07:32;;;;;;;2.45;1.08;;;;;;;19.88;100.00;98622.94;5011524;28;20056;-77
2023/08/02 10:10:05;;;;;;;1.23;0.80;;;;;;;19.77;100.00;98616.06;5013375;28;20046;-78
2023/08/02 10:12:34;;;;;;;1.83;1.33;;;;;;;19.66;100.00;98625.06;5011145;28;20132;-79
2023/08/02 10:15:02;;;;;;;2.40;1.38;;;;;;;19.75;100.00;98612.88;5015950;28;20045;-78
2023/08/02 10:17:28;;;;;;;5.30;1.67;;;;;;;20.23;100.00;98602.78;5012054;28;20050;-78
2023/08/02 10:19:56;;;;;;;2.05;1.73;;;;;;;20.19;100.00;98598.00;5011488;28;20104;-79
2023/08/02 10:22:26;;;;;;;4.03;1.63;;;;;;;20.35;100.00;98595.28;5011149;28;20077;-79
2023/08/02 10:24:53;;;;;;;3.25;1.50;;;;;;;20.75;100.00;98597.91;5012497;28;20137;-78
2023/08/02 10:27:21;;;;;;;4.30;1.83;;;;;;;21.35;100.00;98588.03;5021030;28;20069;-78
2023/08/02 10:29:48;;;;;;;1.80;1.52;;;;;;;21.66;100.00;98577.19;5021083;28;20105;-76
2023/08/02 10:32:17;;;;;;;1.98;1.83;;;;;;;20.97;100.00;98564.81;5020229;28;20081;-80
2023/08/02 10:34:46;;;;;;;1.65;1.55;;;;;;;21.22;100.00;98564.72;5021030;28;20073;-78
2023/08/02 10:37:16;;;;;;;2.17;1.98;;;;;;;21.23;100.00;98568.97;5028255;28;20061;-80
2023/08/02 10:39:55;;;;;;;2.67;1.88;;;;;;;20.64;100.00;98567.09;5021584;28;20077;-80
2023/08/02 10:42:26;;;;;;;2.10;1.90;;;;;;;20.73;100.00;98565.47;5023637;28;20092;-80
2023/08/02 10:45:14;;;;;;;2.58;1.98;;;;;;;21.25;100.00;98558.84;5029786;28;20046;-81
2023/08/02 10:47:41;;;;;;;2.38;1.98;;;;;;;21.22;100.00;98540.78;5018484;28;20050;-79
2023/08/02 10:50:07;;;;;;;3.50;1.45;;;;;;;21.52;100.00;98535.25;5020872;28;20145;-80
2023/08/02 10:52:35;;;;;;;2.90;1.60;;;;;;;21.47;100.00;98529.97;5036715;28;20046;-79
2023/08/02 10:55:08;;;;;;;3.15;1.63;;;;;;;21.42;100.00;98535.31;5029391;28;20046;-79
2023/08/02 10:57:35;;;;;;;1.70;1.60;;;;;;;21.53;100.00;98536.84;5022704;28;20056;-80
2023/08/02 11:00:14;;;;;;;1.80;1.70;;;;;;;21.22;100.00;98519.50;5026867;28;20101;-80
2023/08/02 11:02:45;;;;;;;3.85;1.50;;;;;;;21.18;100.00;98531.75;5023500;28;20532;-80
2023/08/02 11:05:12;;;;;;;2.85;1.52;;;;;;;21.17;100.00;98528.28;5031612;28;20141;-81
2023/08/02 11:07:39;;;;;;;2.13;1.60;;;;;;;21.03;100.00;98537.94;5029047;28;20054;-79
2023/08/02 11:10:07;;;;;;;3.28;1.10;;;;;;;21.10;100.00;98542.97;5029966;28;20061;-80
2023/08/02 11:12:37;;;;;;;3.03;2.13;;;;;;;21.10;100.00;98534.97;5022181;28;20046;-80
2023/08/02 11:15:16;;;;;;;2.15;1.38;;;;;;;21.23;100.00;98522.97;5021360;28;20117;-80
2023/08/02 11:17:42;;;;;;;2.65;1.67;;;;;;;21.07;100.00;98520.38;5020220;28;20049;-80
2023/08/02 11:20:10;;;;;;;1.40;1.30;;;;;;;21.24;100.00;98535.19;5021523;28;20057;-80
2023/08/02 11:22:37;;;;;;;2.97;1.98;;;;;;;21.10;100.00;98516.38;5029366;28;20562;-80
2023/08/02 11:25:06;;;;;;;2.92;1.25;;;;;;;21.69;100.00;98499.44;5021141;28;20096;-79
2023/08/02 11:27:34;;;;;;;5.25;1.17;;;;;;;21.88;100.00;98480.88;5030588;28;20060;-78
2023/08/02 11:30:03;;;;;;;3.58;2.13;;;;;;;22.37;100.00;98481.44;5023955;28;20053;-81